Rio Minho — CUGF6 — position and weather

sailwx.info

Track history (hours):
 
Tides and Currents Weather Stations Pressure Air Temp Water Temp Dewpoint Dewpoint Depression Visibility Wind Speed Wind Dir Waves Ship Positions

Rio Minho

Last reported at 2017-Oct-31 06:52 UTC. Time now 2017-Nov-23 11:22 UTC.
Position N 39°21' W 009°22'.
Warning: this ship's position is 23 days out of date.

Length 24 m.

Type: Fishing. MMSI: 263406490.

Date/timePositionNaut miles runAvg speedWind from/ knotsBaromVisibWave heightAir tempDewpointWater temp
2017-Oct-31 06:52N 39°21' W 009°22'7 0.8
2017-Oct-30 22:49N 39°28' W 009°20'310.1
2017-Oct-30 22:30N 39°25' W 009°22'4 8.2
2017-Oct-30 22:00N 39°21' W 009°24'1 0.7
2017-Oct-30 20:19N 39°21' W 009°22'2 7.3
2017-Oct-30 20:00N 39°22' W 009°25'5 8.8
2017-Oct-30 19:26N 39°26' W 009°29'0 0.5
2017-Oct-30 18:43N 39°26' W 009°29'0 0.3
2017-Oct-30 18:28N 39°26' W 009°28'1 1.7
2017-Oct-30 18:00N 39°26' W 009°28'2 4.8
2017-Oct-30 17:31N 39°25' W 009°30'0 0.0
2017-Oct-30 17:00N 39°25' W 009°30'3 3.0
2017-Oct-30 16:05N 39°27' W 009°30'1 4.9
2017-Oct-30 15:53N 39°28' W 009°31'0 0.2
2017-Oct-30 15:30N 39°28' W 009°31'2 2.8
2017-Oct-30 14:47N 39°27' W 009°29'6 7.2
2017-Oct-30 13:53N 39°22' W 009°25'  
2017-Oct-27 19:58N 39°21' W 009°22'6 4.5
2017-Oct-27 18:36N 39°25' W 009°28'0 0.1
2017-Oct-27 18:24N 39°25' W 009°28'1 1.3
2017-Oct-27 17:55N 39°26' W 009°28'0 0.6
2017-Oct-27 17:30N 39°26' W 009°28'0 0.7
2017-Oct-27 17:00N 39°26' W 009°28'0 0.2
2017-Oct-27 16:30N 39°26' W 009°28'4 4.5
2017-Oct-27 15:43N 39°23' W 009°26'2 8.8
2017-Oct-27 15:29N 39°21' W 009°24'2 3.2
2017-Oct-27 14:58N 39°21' W 009°22'0 0.4
2017-Oct-27 14:28N 39°21' W 009°22'0 0.0
2017-Oct-27 14:00N 39°21' W 009°22'0 0.0
2017-Oct-26 20:09N 39°21' W 009°22'8 0.2
2017-Oct-24 18:46N 39°14' W 009°24'310.5
2017-Oct-24 18:30N 39°11' W 009°25'510.5
2017-Oct-24 18:00N 39°06' W 009°26'510.7
2017-Oct-24 17:30N 39°00' W 009°27'510.5
2017-Oct-24 17:00N 38°55' W 009°28'1 2.5
2017-Oct-24 16:30N 38°54' W 009°28'0 0.5
2017-Oct-24 16:00N 38°54' W 009°28'1 1.8
2017-Oct-24 15:30N 38°54' W 009°27'0 0.5
2017-Oct-24 15:00N 38°54' W 009°27'1 2.0
2017-Oct-24 14:30N 38°54' W 009°28'5 9.7
2017-Oct-24 14:00N 38°59' W 009°27'510.4
2017-Oct-24 13:30N 39°04' W 009°26'510.5
2017-Oct-24 13:00N 39°09' W 009°24'12 0.7
2017-Oct-23 19:04N 39°21' W 009°22'0 0.0
2017-Oct-23 19:00N 39°21' W 009°22'0 0.0
2017-Oct-23 17:47N 39°21' W 009°22'2 8.0
2017-Oct-23 17:29N 39°19' W 009°23'510.3
2017-Oct-23 16:58N 39°14' W 009°24'510.2
2017-Oct-23 16:30N 39°09' W 009°25'510.4
2017-Oct-23 16:00N 39°04' W 009°26'510.1
2017-Oct-23 15:30N 38°59' W 009°26'2 3.6
2017-Oct-23 15:00N 38°57' W 009°26'0 0.0
2017-Oct-23 14:31N 38°57' W 009°26'2 3.9
2017-Oct-23 14:01N 38°59' W 009°27'510.5
2017-Oct-23 13:30N 39°04' W 009°26'510.5
2017-Oct-23 13:00N 39°09' W 009°23'510.8
2017-Oct-23 12:30N 39°14' W 009°23'511.0
2017-Oct-23 12:00N 39°20' W 009°22'  
Track history (hours):
 
Tides and Currents Weather Stations Pressure Air Temp Water Temp Dewpoint Dewpoint Depression Visibility Wind Speed Wind Dir Waves Ship Positions

Rio Minho

Last reported at 2017-Oct-31 06:52 UTC. Time now 2017-Nov-23 11:22 UTC.
Position N 39°21' W 009°22'.
Warning: this ship's position is 23 days out of date.

Length 24 m.

Type: Fishing. MMSI: 263406490.

Date/timePositionNaut miles runAvg speedWind from/ knotsBaromVisibWave heightAir tempDewpointWater temp
2017-Oct-31 06:52N 39°21' W 009°22'7 0.8
2017-Oct-30 22:49N 39°28' W 009°20'310.1
2017-Oct-30 22:30N 39°25' W 009°22'4 8.2
2017-Oct-30 22:00N 39°21' W 009°24'1 0.7
2017-Oct-30 20:19N 39°21' W 009°22'2 7.3
2017-Oct-30 20:00N 39°22' W 009°25'5 8.8
2017-Oct-30 19:26N 39°26' W 009°29'0 0.5
2017-Oct-30 18:43N 39°26' W 009°29'0 0.3
2017-Oct-30 18:28N 39°26' W 009°28'1 1.7
2017-Oct-30 18:00N 39°26' W 009°28'2 4.8
2017-Oct-30 17:31N 39°25' W 009°30'0 0.0
2017-Oct-30 17:00N 39°25' W 009°30'3 3.0
2017-Oct-30 16:05N 39°27' W 009°30'1 4.9
2017-Oct-30 15:53N 39°28' W 009°31'0 0.2
2017-Oct-30 15:30N 39°28' W 009°31'2 2.8
2017-Oct-30 14:47N 39°27' W 009°29'6 7.2
2017-Oct-30 13:53N 39°22' W 009°25'  
2017-Oct-27 19:58N 39°21' W 009°22'6 4.5
2017-Oct-27 18:36N 39°25' W 009°28'0 0.1
2017-Oct-27 18:24N 39°25' W 009°28'1 1.3
2017-Oct-27 17:55N 39°26' W 009°28'0 0.6
2017-Oct-27 17:30N 39°26' W 009°28'0 0.7
2017-Oct-27 17:00N 39°26' W 009°28'0 0.2
2017-Oct-27 16:30N 39°26' W 009°28'4 4.5
2017-Oct-27 15:43N 39°23' W 009°26'2 8.8
2017-Oct-27 15:29N 39°21' W 009°24'2 3.2
2017-Oct-27 14:58N 39°21' W 009°22'0 0.4
2017-Oct-27 14:28N 39°21' W 009°22'0 0.0
2017-Oct-27 14:00N 39°21' W 009°22'0 0.0
2017-Oct-26 20:09N 39°21' W 009°22'8 0.2
2017-Oct-24 18:46N 39°14' W 009°24'310.5
2017-Oct-24 18:30N 39°11' W 009°25'510.5
2017-Oct-24 18:00N 39°06' W 009°26'510.7
2017-Oct-24 17:30N 39°00' W 009°27'510.5
2017-Oct-24 17:00N 38°55' W 009°28'1 2.5
2017-Oct-24 16:30N 38°54' W 009°28'0 0.5
2017-Oct-24 16:00N 38°54' W 009°28'1 1.8
2017-Oct-24 15:30N 38°54' W 009°27'0 0.5
2017-Oct-24 15:00N 38°54' W 009°27'1 2.0
2017-Oct-24 14:30N 38°54' W 009°28'5 9.7
2017-Oct-24 14:00N 38°59' W 009°27'510.4
2017-Oct-24 13:30N 39°04' W 009°26'510.5
2017-Oct-24 13:00N 39°09' W 009°24'12 0.7
2017-Oct-23 19:04N 39°21' W 009°22'0 0.0
2017-Oct-23 19:00N 39°21' W 009°22'0 0.0
2017-Oct-23 17:47N 39°21' W 009°22'2 8.0
2017-Oct-23 17:29N 39°19' W 009°23'510.3
2017-Oct-23 16:58N 39°14' W 009°24'510.2
2017-Oct-23 16:30N 39°09' W 009°25'510.4
2017-Oct-23 16:00N 39°04' W 009°26'510.1
2017-Oct-23 15:30N 38°59' W 009°26'2 3.6
2017-Oct-23 15:00N 38°57' W 009°26'0 0.0
2017-Oct-23 14:31N 38°57' W 009°26'2 3.9
2017-Oct-23 14:01N 38°59' W 009°27'510.5
2017-Oct-23 13:30N 39°04' W 009°26'510.5
2017-Oct-23 13:00N 39°09' W 009°23'510.8
2017-Oct-23 12:30N 39°14' W 009°23'511.0
2017-Oct-23 12:00N 39°20' W 009°22'  

Dump ship's entire track history